createdAt,value
2016-05-12T00:00:09.851Z,57.06
2016-05-12T00:01:09.823Z,57.35
2016-05-12T00:02:09.903Z,57.06
2016-05-12T00:03:09.766Z,57.45
2016-05-12T00:04:24.128Z,57.35
2016-05-12T00:05:09.818Z,57.35
2016-05-12T00:06:09.836Z,57.45
2016-05-12T00:07:10.010Z,57.64
2016-05-12T00:08:10.029Z,58.12
2016-05-12T00:09:10.063Z,58.02
2016-05-12T00:10:10.096Z,57.92
2016-05-12T00:11:10.100Z,58.59
2016-05-12T00:12:10.118Z,58.5
2016-05-12T00:13:10.152Z,58.69
2016-05-12T00:14:10.171Z,58.88
2016-05-12T00:15:10.204Z,58.88
2016-05-12T00:16:10.207Z,58.66
2016-05-12T00:17:10.240Z,58.79
2016-05-12T00:18:10.259Z,59.27
2016-05-12T00:19:10.293Z,59.17
2016-05-12T00:20:24.499Z,58.69
2016-05-12T00:21:10.329Z,58.69
2016-05-12T00:22:10.348Z,58.69
2016-05-12T00:23:10.381Z,58.22
2016-05-12T00:24:10.416Z,58.5
2016-05-12T00:25:10.263Z,58.79
2016-05-12T00:26:10.453Z,59.27
2016-05-12T00:27:10.470Z,59.45
2016-05-12T00:28:10.505Z,59.27
2016-05-12T00:29:10.507Z,59.36
2016-05-12T00:32:10.578Z,59.55
2016-05-12T00:33:10.597Z,59.08
2016-05-12T00:34:10.474Z,59.17
2016-05-12T00:35:10.508Z,59.27
2016-05-12T00:36:24.855Z,59.75
2016-05-12T00:37:10.700Z,60.03
2016-05-12T00:38:10.563Z,60.32
2016-05-12T00:39:10.753Z,59.94
2016-05-12T00:40:10.756Z,60.13
2016-05-12T00:41:10.790Z,60.29
2016-05-12T00:42:10.808Z,60.8
2016-05-12T00:43:10.670Z,60.77
2016-05-12T00:44:10.860Z,61.15
2016-05-12T00:45:10.878Z,60.61
2016-05-12T00:46:11.178Z,61.54
2016-05-12T00:47:10.932Z,61.82
2016-05-12T00:48:10.949Z,61.63
2016-05-12T00:50:11.001Z,62.2
2016-05-12T00:51:11.020Z,62.01
2016-05-12T00:52:25.225Z,62.4
2016-05-12T00:53:11.056Z,62.4
2016-05-12T00:54:11.075Z,62.11
2016-05-12T00:55:11.109Z,62.3
2016-05-12T00:56:11.126Z,62.68
2016-05-12T00:57:11.145Z,62.11
2016-05-12T00:59:11.198Z,62.4
2016-05-12T01:00:11.216Z,62.3
2016-05-12T01:01:11.296Z,62.01
2016-05-12T01:02:11.268Z,62.2
2016-05-12T01:03:11.131Z,62.59
2016-05-12T01:04:11.148Z,63.06
2016-05-12T01:05:11.338Z,62.68
2016-05-12T01:06:11.357Z,63.54
2016-05-12T01:07:25.563Z,63.26
2016-05-12T01:08:11.409Z,63.54
2016-05-12T01:09:11.412Z,63.45
2016-05-12T01:10:11.446Z,63.16
2016-05-12T01:11:11.464Z,63.54
2016-05-12T01:12:11.482Z,63.64
2016-05-12T01:13:11.360Z,63.73
2016-05-12T01:14:11.535Z,63.73
2016-05-12T01:15:11.553Z,63.45
2016-05-12T01:16:11.431Z,63.73
2016-05-12T01:18:11.623Z,64.02
2016-05-12T01:19:11.642Z,64.02
2016-05-12T01:20:11.676Z,64.02
2016-05-12T01:21:11.709Z,64.12
2016-05-12T01:22:11.713Z,63.83
2016-05-12T01:23:11.746Z,64.12
2016-05-12T01:24:11.765Z,64.02
2016-05-12T01:25:11.627Z,64.31
2016-05-12T01:26:11.817Z,63.73
2016-05-12T01:27:11.835Z,64.31
2016-05-12T01:28:11.853Z,64.5
2016-05-12T01:29:11.872Z,64.98
2016-05-12T01:30:11.734Z,64.75
2016-05-12T01:31:11.925Z,64.56
2016-05-12T01:32:11.942Z,64.66
2016-05-12T01:33:11.961Z,64.98
2016-05-12T01:35:12.013Z,65.61
2016-05-12T01:36:12.031Z,66
2016-05-12T01:37:12.050Z,65.71
2016-05-12T01:38:12.069Z,65.52
2016-05-12T01:39:26.289Z,65.42
2016-05-12T01:40:12.120Z,65.71
2016-05-12T01:41:12.154Z,65.23
2016-05-12T01:42:12.173Z,65.71
2016-05-12T01:43:12.191Z,65.61
2016-05-12T01:44:12.209Z,65.61
2016-05-12T01:45:12.227Z,65.61
2016-05-12T01:46:12.261Z,65.71
2016-05-12T01:47:12.280Z,65.61
2016-05-12T01:48:12.298Z,65.42
2016-05-12T01:49:12.316Z,66.09
2016-05-12T01:50:12.351Z,66.09
2016-05-12T01:51:12.368Z,65.9
2016-05-12T01:52:12.387Z,65.04
2016-05-12T01:53:12.812Z,65.84
2016-05-12T01:54:12.439Z,65.71
2016-05-12T01:55:26.645Z,66.28
2016-05-12T01:56:12.476Z,66.09
2016-05-12T01:57:12.495Z,66.57
2016-05-12T01:58:12.528Z,66.57
2016-05-12T01:59:12.390Z,66.47
2016-05-12T02:00:12.565Z,66.57
2016-05-12T02:01:12.614Z,66.67
2016-05-12T02:02:12.616Z,67.14
2016-05-12T02:03:12.635Z,66.76
2016-05-12T02:04:12.670Z,67.24
2016-05-12T02:05:12.687Z,67.21
2016-05-12T02:06:12.705Z,67.14
2016-05-12T02:07:12.755Z,67.02
2016-05-12T02:08:12.758Z,67.02
2016-05-12T02:09:12.777Z,67.3
2016-05-12T02:10:12.794Z,67.21
2016-05-12T02:11:27.000Z,67.21
2016-05-12T02:12:12.847Z,67.88
2016-05-12T02:13:12.865Z,67.59
2016-05-12T02:14:12.899Z,67.78
2016-05-12T02:15:12.902Z,67.97
2016-05-12T02:16:12.951Z,68.16
2016-05-12T02:17:12.955Z,68.07
2016-05-12T02:18:12.972Z,68.84
2016-05-12T02:19:13.006Z,67.97
2016-05-12T02:20:13.025Z,68.35
2016-05-12T02:21:12.887Z,68.26
2016-05-12T02:22:13.062Z,68.55
2016-05-12T02:24:13.113Z,68.55
2016-05-12T02:25:12.976Z,68.55
2016-05-12T02:26:13.151Z,68.84
2016-05-12T02:27:27.356Z,69.12
2016-05-12T02:28:13.203Z,68.45
2016-05-12T02:29:13.220Z,68.93
2016-05-12T02:30:13.254Z,68.74
2016-05-12T02:31:13.101Z,68.26
2016-05-12T02:32:13.292Z,68.35
2016-05-12T02:33:13.310Z,68.2
2016-05-12T02:34:13.344Z,68.16
2016-05-12T02:35:13.346Z,68.93
2016-05-12T02:36:13.381Z,69.41
2016-05-12T02:37:13.398Z,69.6
2016-05-12T02:38:13.416Z,69.31
2016-05-12T02:39:13.451Z,69.6
2016-05-12T02:40:13.469Z,69.79
2016-05-12T02:41:13.503Z,69.89
2016-05-12T02:42:27.694Z,70.36
2016-05-12T02:43:13.602Z,70.17
2016-05-12T02:44:13.558Z,69.79
2016-05-12T02:45:13.576Z,69.5
2016-05-12T02:46:13.610Z,69.6
2016-05-12T02:47:13.472Z,69.5
2016-05-12T02:48:13.491Z,69.31
2016-05-12T02:49:13.665Z,69.41
2016-05-12T02:50:13.683Z,69.89
2016-05-12T02:51:13.718Z,70.75
2016-05-12T02:52:13.736Z,70.17
2016-05-12T02:53:13.770Z,70.52
2016-05-12T02:54:13.788Z,70.56
2016-05-12T02:55:13.821Z,70.61
2016-05-12T02:57:13.873Z,70.81
2016-05-12T02:58:13.720Z,70.81
2016-05-12T02:59:13.896Z,71.09
2016-05-12T03:00:13.914Z,71.13
2016-05-12T03:01:13.948Z,70.94
2016-05-12T03:02:13.950Z,71.19
2016-05-12T03:03:13.984Z,71.38
2016-05-12T03:04:14.017Z,70.81
2016-05-12T03:05:14.021Z,70.9
2016-05-12T03:06:14.039Z,71.38
2016-05-12T03:07:14.073Z,71.57
2016-05-12T03:08:14.091Z,71.47
2016-05-12T03:09:14.109Z,71.86
2016-05-12T03:10:14.144Z,71.86
2016-05-12T03:11:14.162Z,71.28
2016-05-12T03:12:14.180Z,71.51
2016-05-12T03:13:14.199Z,71.38
2016-05-12T03:14:28.405Z,71.19
2016-05-12T03:15:14.250Z,71.09
2016-05-12T03:16:14.269Z,70.9
2016-05-12T03:17:14.287Z,70.65
2016-05-12T03:18:14.322Z,70.81
2016-05-12T03:19:14.340Z,71.09
2016-05-12T03:20:14.358Z,71.19
2016-05-12T03:21:14.377Z,71.95
2016-05-12T03:22:14.238Z,71.47
2016-05-12T03:23:14.428Z,71.57
2016-05-12T03:25:14.309Z,71.95
2016-05-12T03:26:14.484Z,72.14
2016-05-12T03:27:14.517Z,72.33
2016-05-12T03:28:14.535Z,72.43
2016-05-12T03:29:14.554Z,71.67
2016-05-12T03:30:28.759Z,71.38
2016-05-12T03:31:14.606Z,71.19
2016-05-12T03:32:14.625Z,71.57
2016-05-12T03:33:14.643Z,71.57
2016-05-12T03:34:14.676Z,71.57
2016-05-12T03:35:14.695Z,71.95
2016-05-12T03:36:14.713Z,72.43
2016-05-12T03:37:14.731Z,72.14
2016-05-12T03:38:14.750Z,72.05
2016-05-12T03:39:14.628Z,71.95
2016-05-12T03:40:14.803Z,72.14
2016-05-12T03:41:14.820Z,72.14
2016-05-12T03:42:14.838Z,72.05
2016-05-12T03:43:14.872Z,71.38
2016-05-12T03:44:14.891Z,71.95
2016-05-12T03:45:14.910Z,71.67
2016-05-12T03:46:29.115Z,71.76
2016-05-12T03:47:14.961Z,71.57
2016-05-12T03:48:14.980Z,72.05
2016-05-12T03:49:14.999Z,72.05
2016-05-12T03:50:15.016Z,72.33
2016-05-12T03:51:14.894Z,72.05
2016-05-12T03:52:15.069Z,72.05
2016-05-12T03:54:15.105Z,71.47
2016-05-12T03:56:15.157Z,71.57
2016-05-12T03:57:15.020Z,71.47
2016-05-12T03:58:15.195Z,72.05
2016-05-12T04:00:15.247Z,71.67
2016-05-12T04:01:15.343Z,71.19
2016-05-12T04:02:29.471Z,71.13
2016-05-12T04:03:15.301Z,71.22
2016-05-12T04:04:15.336Z,71.32
2016-05-12T04:05:15.354Z,71.57
2016-05-12T04:06:15.373Z,71.47
2016-05-12T04:07:15.406Z,71.51
2016-05-12T04:08:15.425Z,72.05
2016-05-12T04:09:15.458Z,71.28
2016-05-12T04:10:15.477Z,71.51
2016-05-12T04:11:15.480Z,70.94
2016-05-12T04:12:15.514Z,71.32
2016-05-12T04:13:15.531Z,71.22
2016-05-12T04:14:15.566Z,71.22
2016-05-12T04:16:15.836Z,70.65
2016-05-12T04:17:29.808Z,71.22
2016-05-12T04:18:15.638Z,70.94
2016-05-12T04:19:15.673Z,70.65
2016-05-12T04:20:15.691Z,70.36
2016-05-12T04:21:15.710Z,69.89
2016-05-12T04:22:15.743Z,70.07
2016-05-12T04:23:15.762Z,70.17
2016-05-12T04:24:15.795Z,69.89
2016-05-12T04:25:15.657Z,69.98
2016-05-12T04:26:15.832Z,69.79
2016-05-12T04:27:15.851Z,69.5
2016-05-12T04:28:15.868Z,69.41
2016-05-12T04:31:16.034Z,69.79
2016-05-12T04:32:15.957Z,69.7
2016-05-12T04:33:15.976Z,69.89
2016-05-12T04:34:15.995Z,69.5
2016-05-12T04:35:15.872Z,69.6
2016-05-12T04:36:15.890Z,69.73
2016-05-12T04:37:16.064Z,68.96
2016-05-12T04:38:16.099Z,68.39
2016-05-12T04:39:16.118Z,68.96
2016-05-12T04:40:16.136Z,69.06
2016-05-12T04:41:16.169Z,67.91
2016-05-12T04:42:16.188Z,68.2
2016-05-12T04:43:16.205Z,69.25
2016-05-12T04:44:16.256Z,68.39
2016-05-12T04:45:16.259Z,68.29
2016-05-12T04:46:16.308Z,68.1
2016-05-12T04:47:16.139Z,67.72
2016-05-12T04:48:16.329Z,67.18
2016-05-12T04:49:30.535Z,64.05
2016-05-12T04:50:16.365Z,61.91
2016-05-12T04:51:16.384Z,59.26
2016-05-12T04:52:16.418Z,57.65
2016-05-12T04:53:16.436Z,56.24
2016-05-12T04:54:16.298Z,55.02
2016-05-12T04:55:16.488Z,53.78
2016-05-12T04:56:16.507Z,52.2
2016-05-12T04:57:16.525Z,50.76
2016-05-12T04:58:16.559Z,49.91
2016-05-12T04:59:16.577Z,48.88
2016-05-12T05:00:16.612Z,47.92
2016-05-12T05:01:16.660Z,47.56
2016-05-12T05:02:16.648Z,46.88
2016-05-12T05:03:16.994Z,45.87
2016-05-12T05:04:22.466Z,44.52
2016-05-12T05:05:30.921Z,43.58
2016-05-12T05:06:16.753Z,42.46
2016-05-12T05:07:16.787Z,41.13
2016-05-12T05:08:16.648Z,39.7
2016-05-12T05:09:16.839Z,38.08
2016-05-12T05:10:16.856Z,37.23
2016-05-12T05:11:16.891Z,36.76
2016-05-12T05:12:16.909Z,36.57
2016-05-12T05:13:16.928Z,36.76
2016-05-12T05:14:16.961Z,38.2
2016-05-12T05:15:16.823Z,37.79
2016-05-12T05:16:17.216Z,36.84
2016-05-12T05:17:17.047Z,35.89
2016-05-12T05:19:17.100Z,36.08
2016-05-12T05:20:17.133Z,37.05
2016-05-12T05:21:31.339Z,36.94
2016-05-12T05:22:17.186Z,37.21
2016-05-12T05:23:17.204Z,36.07
2016-05-12T05:24:17.239Z,35.8
2016-05-12T05:25:17.257Z,35.42
2016-05-12T05:26:17.307Z,36.28
2016-05-12T05:27:17.309Z,35.6
2016-05-12T05:28:17.343Z,34.45
2016-05-12T05:29:17.376Z,35.15
2016-05-12T05:30:17.410Z,36.55
2016-05-12T05:31:17.429Z,35.68
2016-05-12T05:32:17.463Z,34.92
2016-05-12T05:33:17.481Z,32.82
2016-05-12T05:34:17.515Z,31.6
2016-05-12T05:36:17.567Z,32.47
2016-05-12T05:37:31.789Z,31.02
2016-05-12T05:38:17.634Z,30.08
2016-05-12T05:39:17.670Z,29.9
2016-05-12T05:40:17.704Z,29.62
2016-05-12T05:41:17.722Z,29.32
2016-05-12T05:42:17.756Z,29.14
2016-05-12T05:43:17.773Z,29.72
2016-05-12T05:44:17.807Z,30.57
2016-05-12T05:45:17.686Z,30.08
2016-05-12T05:46:17.719Z,31.23
2016-05-12T05:47:17.894Z,31.12
2016-05-12T05:48:17.928Z,30.44
2016-05-12T05:49:17.946Z,29.98
2016-05-12T05:50:17.980Z,29.98
2016-05-12T05:51:18.014Z,29.87
2016-05-12T05:52:32.235Z,29.21
2016-05-12T05:53:17.925Z,28.08
2016-05-12T05:54:18.115Z,27.23
2016-05-12T05:55:18.134Z,27.42
2016-05-12T05:56:18.169Z,27.14
2016-05-12T05:57:18.202Z,27.22
2016-05-12T05:58:18.235Z,27.5
2016-05-12T05:59:18.254Z,26.54
2016-05-12T06:00:18.304Z,26.18
2016-05-12T06:01:18.322Z,27.69
2016-05-12T06:02:18.356Z,28.93
2016-05-12T06:03:18.390Z,29
2016-05-12T06:04:18.409Z,27.68
2016-05-12T06:05:18.443Z,27.31
2016-05-12T06:06:18.476Z,25.58
2016-05-12T06:07:18.838Z,24.16
2016-05-12T06:08:18.528Z,23.3
2016-05-12T06:09:18.562Z,22.64
2016-05-12T06:10:18.595Z,21.86
2016-05-12T06:11:18.631Z,22.46
2016-05-12T06:12:18.664Z,22.53
2016-05-12T06:13:18.698Z,22.56
2016-05-12T06:14:18.716Z,21.48
2016-05-12T06:15:18.750Z,20.81
2016-05-12T06:16:18.644Z,21
2016-05-12T06:17:18.694Z,22.37
2016-05-12T06:18:18.852Z,23.58
2016-05-12T06:19:18.886Z,23.19
2016-05-12T06:20:18.920Z,23
2016-05-12T06:21:18.954Z,22.42
2016-05-12T06:22:18.832Z,22.81
2016-05-12T06:23:18.850Z,22.73
2016-05-12T06:24:33.227Z,20.79
2016-05-12T06:25:19.074Z,20.63
2016-05-12T06:26:19.108Z,20.82
2016-05-12T06:27:19.142Z,20.92
2016-05-12T06:28:19.176Z,22.17
2016-05-12T06:29:19.210Z,22.24
2016-05-12T06:30:19.244Z,23.19
2016-05-12T06:31:19.746Z,23.19
2016-05-12T06:32:19.312Z,22.22
2016-05-12T06:33:19.345Z,22.06
2016-05-12T06:34:19.224Z,22.63
2016-05-12T06:37:19.466Z,24.73
2016-05-12T06:38:19.500Z,23.36
2016-05-12T06:39:19.534Z,20.97
2016-05-12T06:40:33.756Z,19.84
2016-05-12T06:41:19.602Z,19.1
2016-05-12T06:42:19.636Z,18.89
2016-05-12T06:43:19.670Z,18.31
2016-05-12T06:44:19.703Z,17.93
2016-05-12T06:45:19.722Z,17.65
2016-05-12T06:46:19.772Z,18.32
2016-05-12T06:47:19.805Z,19.28
2016-05-12T06:48:19.839Z,21.21
2016-05-12T06:49:19.857Z,20.7
2016-05-12T06:50:19.934Z,19.26
2016-05-12T06:51:20.027Z,17.72
2016-05-12T06:52:19.947Z,17.46
2016-05-12T06:54:20.242Z,18.31
2016-05-12T06:55:20.307Z,18.9
2016-05-12T06:56:34.529Z,19.18
2016-05-12T06:57:20.390Z,18.7
2016-05-12T06:58:20.439Z,18.5
2016-05-12T06:59:20.488Z,18.81
2016-05-12T07:00:20.543Z,18.99
2016-05-12T07:01:20.568Z,18.41
2016-05-12T07:02:20.606Z,18.51
2016-05-12T07:03:20.646Z,17.65
2016-05-12T07:04:20.684Z,17.07
2016-05-12T07:05:20.721Z,16.4
2016-05-12T07:06:20.601Z,16.5
2016-05-12T07:07:20.809Z,17.07
2016-05-12T07:10:20.916Z,16.39
2016-05-12T07:11:20.950Z,16.28
2016-05-12T07:12:35.156Z,15.7
2016-05-12T07:13:20.862Z,15.72
2016-05-12T07:14:21.054Z,15.42
2016-05-12T07:15:21.088Z,16.41
2016-05-12T07:16:21.122Z,15.63
2016-05-12T07:17:21.156Z,15.22
2016-05-12T07:18:21.191Z,16.12
2016-05-12T07:19:21.225Z,17.56
2016-05-12T07:20:21.259Z,18.51
2016-05-12T07:21:21.292Z,18.4
2016-05-12T07:22:21.327Z,18.31
2016-05-12T07:23:21.205Z,18.9
2016-05-12T07:24:21.411Z,19.57
2016-05-12T07:26:21.463Z,19.26
2016-05-12T07:27:35.683Z,18.98
2016-05-12T07:28:21.531Z,19.18
2016-05-12T07:29:21.564Z,20.23
2016-05-12T07:30:21.614Z,19.45
2016-05-12T07:31:21.648Z,19.08
2016-05-12T07:32:21.682Z,18.5
2016-05-12T07:33:21.716Z,17.44
2016-05-12T07:34:21.735Z,17.07
2016-05-12T07:35:21.627Z,18.65
2016-05-12T07:36:21.833Z,18.4
2016-05-12T07:37:21.868Z,18.9
2016-05-12T07:38:21.901Z,18.11
2016-05-12T07:39:21.794Z,17.56
2016-05-12T07:40:21.969Z,17.27
2016-05-12T07:41:21.988Z,17.27
2016-05-12T07:42:22.021Z,16.49
2016-05-12T07:43:22.071Z,16.4
2016-05-12T07:44:21.932Z,15.53
2016-05-12T07:45:22.124Z,15.42
2016-05-12T07:46:22.157Z,15.03
2016-05-12T07:47:22.191Z,14.95
2016-05-12T07:48:22.225Z,15.53
2016-05-12T07:49:22.259Z,15.63
2016-05-12T07:50:22.309Z,16.41
2016-05-12T07:51:22.342Z,17.29
2016-05-12T07:52:22.377Z,18.7
2016-05-12T07:53:22.411Z,17.72
2016-05-12T07:54:22.445Z,17.05
2016-05-12T07:56:22.512Z,17.54
2016-05-12T07:57:22.390Z,17.53
2016-05-12T07:58:22.580Z,16.95
2016-05-12T07:59:36.802Z,17.94
2016-05-12T08:00:22.647Z,18.7
2016-05-12T08:01:22.682Z,19.08
2016-05-12T08:02:22.560Z,18.98
2016-05-12T08:03:22.609Z,17.72
2016-05-12T08:04:22.799Z,17.65
2016-05-12T08:05:22.833Z,18.41
2016-05-12T08:06:22.883Z,18.21
2016-05-12T08:07:22.902Z,17.44
2016-05-12T08:08:22.935Z,17.05
2016-05-12T08:09:22.968Z,16.28
2016-05-12T08:10:23.003Z,17.66
2016-05-12T08:11:23.038Z,15.6
2016-05-12T08:12:23.071Z,15.32
2016-05-12T08:13:23.105Z,15.79
2016-05-12T08:14:23.138Z,15.8
2016-05-12T08:15:37.360Z,15.02
2016-05-12T08:16:23.223Z,15.8
2016-05-12T08:17:23.240Z,15.33
2016-05-12T08:18:23.291Z,15.34
2016-05-12T08:19:23.324Z,15.23
2016-05-12T08:20:23.358Z,15.13
2016-05-12T08:21:23.393Z,14.84
2016-05-12T08:22:23.426Z,16.41
2016-05-12T08:23:23.459Z,15.7
2016-05-12T08:24:23.337Z,15.13
2016-05-12T08:25:23.372Z,16.5
2016-05-12T08:27:23.595Z,15.41
2016-05-12T08:28:26.130Z,14.73
2016-05-12T08:29:23.663Z,13.96
2016-05-12T08:30:23.556Z,12.51
2016-05-12T08:31:37.919Z,12.53
2016-05-12T08:32:23.625Z,13.11
2016-05-12T08:33:25.753Z,13.4
2016-05-12T08:34:23.850Z,14.35
2016-05-12T08:35:23.883Z,15.72
2016-05-12T08:36:23.917Z,14.91
2016-05-12T08:37:23.950Z,15.61
2016-05-12T08:38:23.844Z,15.11
2016-05-12T08:39:24.019Z,16.2
2016-05-12T08:41:24.102Z,17.52
2016-05-12T08:42:24.135Z,16.18
2016-05-12T08:43:24.920Z,16.58
2016-05-12T08:44:24.204Z,15.41
2016-05-12T08:45:24.238Z,13.48
2016-05-12T08:46:24.287Z,14.18
2016-05-12T08:47:38.493Z,15.03
2016-05-12T08:48:25.887Z,15.51
2016-05-12T08:49:24.373Z,15.89
2016-05-12T08:50:24.423Z,17.36
2016-05-12T08:51:24.457Z,16.55
2016-05-12T08:52:24.490Z,15.88
2016-05-12T08:53:24.525Z,15.59
2016-05-12T08:54:24.559Z,15.22
2016-05-12T08:55:24.592Z,15.23
2016-05-12T08:56:24.627Z,15.77
2016-05-12T08:57:24.661Z,16.49
2016-05-12T08:58:24.538Z,15.69
2016-05-12T08:59:24.729Z,14.92
2016-05-12T09:00:24.762Z,15.12
2016-05-12T09:01:24.811Z,15.59
2016-05-12T09:02:39.018Z,14.04
2016-05-12T09:03:24.880Z,13.1
2016-05-12T09:04:24.914Z,12.23
2016-05-12T09:05:24.947Z,12.52
2016-05-12T09:06:24.982Z,12.53
2016-05-12T09:08:25.049Z,13.19
2016-05-12T09:09:25.083Z,13.37
2016-05-12T09:10:25.118Z,12.41
2016-05-12T09:11:25.152Z,13.01
2016-05-12T09:12:25.201Z,13.29
2016-05-12T09:13:25.235Z,13.09
2016-05-12T09:14:25.284Z,13.29
2016-05-12T09:15:25.303Z,13.49
2016-05-12T09:16:25.540Z,14.16
2016-05-12T09:17:25.371Z,13.86
2016-05-12T09:18:25.405Z,14.26
2016-05-12T09:19:25.438Z,14.73
2016-05-12T09:20:25.316Z,14.15
2016-05-12T09:21:25.523Z,14.36
2016-05-12T09:22:25.556Z,15.03
2016-05-12T09:23:25.590Z,13.76
2016-05-12T09:24:25.623Z,13.08
2016-05-12T09:25:25.658Z,12.9
2016-05-12T09:26:25.536Z,13.1
2016-05-12T09:27:25.741Z,13.86
2016-05-12T09:28:25.759Z,14.15
2016-05-12T09:29:25.794Z,13.57
2016-05-12T09:30:25.687Z,13.37
2016-05-12T09:31:25.877Z,15.34
2016-05-12T09:32:25.895Z,15.67
2016-05-12T09:33:25.945Z,15.21
2016-05-12T09:34:40.166Z,14.43
2016-05-12T09:35:26.013Z,14.63
2016-05-12T09:36:26.047Z,14.53
2016-05-12T09:37:26.081Z,16.49
2016-05-12T09:38:26.114Z,16.45
2016-05-12T09:40:26.199Z,14.34
2016-05-12T09:41:26.216Z,13.96
2016-05-12T09:42:26.094Z,14.15
2016-05-12T09:43:26.284Z,13.67
2016-05-12T09:44:26.318Z,12.99
2016-05-12T09:45:26.352Z,15.67
2016-05-12T09:47:26.436Z,17.61
2016-05-12T09:48:26.470Z,17.82
2016-05-12T09:49:26.504Z,20.33
2016-05-12T09:50:40.726Z,22.8
2016-05-12T09:51:26.571Z,23.74
2016-05-12T09:52:26.434Z,23.71
2016-05-12T09:53:26.639Z,23.55
2016-05-12T09:54:26.673Z,24.5
2016-05-12T09:55:26.707Z,24.1
2016-05-12T09:56:26.742Z,21.32
2016-05-12T09:57:26.775Z,21.25
2016-05-12T09:58:26.793Z,22.12
2016-05-12T09:59:26.827Z,20.38
2016-05-12T10:00:26.877Z,19.15
2016-05-12T10:01:27.192Z,17.61
2016-05-12T10:02:26.944Z,17.63
2016-05-12T10:05:27.031Z,14.82
2016-05-12T10:06:41.253Z,15.3
2016-05-12T10:07:27.114Z,15.88
2016-05-12T10:08:27.149Z,15.58
2016-05-12T10:09:27.183Z,17.05
2016-05-12T10:10:27.216Z,19.08
2016-05-12T10:11:27.250Z,20.29
2016-05-12T10:12:27.284Z,20.57
2016-05-12T10:13:27.318Z,19.8
2016-05-12T10:15:27.385Z,18.27
2016-05-12T10:16:27.466Z,17.03
2016-05-12T10:17:27.298Z,16.08
2016-05-12T10:18:27.488Z,15.99
2016-05-12T10:19:27.522Z,16.64
2016-05-12T10:20:27.556Z,15.18
2016-05-12T10:21:27.590Z,15.09
2016-05-12T10:22:41.811Z,15
2016-05-12T10:23:27.658Z,15.69
2016-05-12T10:24:27.692Z,15.09
2016-05-12T10:25:27.929Z,14.61
2016-05-12T10:26:27.775Z,14.04
2016-05-12T10:27:27.809Z,14.42
2016-05-12T10:28:27.843Z,13.92
2016-05-12T10:29:27.861Z,13.92
2016-05-12T10:30:27.911Z,14.52
2016-05-12T10:31:28.178Z,14.9
2016-05-12T10:34:28.046Z,13.24
2016-05-12T10:35:28.080Z,14.05
2016-05-12T10:36:27.989Z,14.81
2016-05-12T10:37:42.352Z,14.01
2016-05-12T10:38:28.198Z,12.97
2016-05-12T10:39:28.247Z,13.26
2016-05-12T10:40:28.422Z,12.48
2016-05-12T10:41:28.299Z,11.91
2016-05-12T10:42:28.349Z,12.7
2016-05-12T10:43:28.368Z,12.7
2016-05-12T10:44:28.417Z,13.75
2016-05-12T10:45:28.466Z,14.4
2016-05-12T10:46:29.032Z,14.59
2016-05-12T10:48:28.553Z,14.42
2016-05-12T10:49:28.602Z,14.9
2016-05-12T10:50:28.636Z,14.98
2016-05-12T10:51:28.671Z,15.45
2016-05-12T10:52:28.705Z,14.87
2016-05-12T10:53:28.738Z,13.82
2016-05-12T10:54:28.773Z,13.64
2016-05-12T10:55:28.806Z,14.34
2016-05-12T10:56:28.840Z,15.57
2016-05-12T10:57:28.874Z,15.94
2016-05-12T10:58:28.924Z,17.5
2016-05-12T10:59:28.801Z,16.81
2016-05-12T11:00:28.991Z,16.05
2016-05-12T11:01:28.869Z,14.9
2016-05-12T11:02:29.060Z,16.93
2016-05-12T11:03:29.092Z,18.46
2016-05-12T11:04:29.142Z,19.21
2016-05-12T11:05:29.161Z,20.47
2016-05-12T11:06:29.055Z,21.02
2016-05-12T11:07:29.089Z,22.08
2016-05-12T11:08:29.264Z,22.65
2016-05-12T11:09:43.499Z,23.33
2016-05-12T11:10:29.347Z,22.93
2016-05-12T11:11:29.381Z,22.16
2016-05-12T11:12:29.258Z,22.16
2016-05-12T11:13:29.292Z,23.13
2016-05-12T11:14:29.482Z,22.74
2016-05-12T11:15:29.516Z,23.13
2016-05-12T11:16:29.550Z,23.79
2016-05-12T11:17:29.427Z,24.17
2016-05-12T11:18:29.618Z,24
2016-05-12T11:19:29.668Z,23.89
2016-05-12T11:20:29.701Z,23.99
2016-05-12T11:21:29.735Z,23.61
2016-05-12T11:22:29.769Z,24.29
2016-05-12T11:23:29.803Z,24.28
2016-05-12T11:24:29.837Z,23.6
2016-05-12T11:25:44.059Z,23.8
2016-05-12T11:27:29.782Z,24.76
2016-05-12T11:28:29.832Z,25.32
2016-05-12T11:29:30.007Z,25.9
2016-05-12T11:30:30.041Z,27.24
2016-05-12T11:31:30.075Z,27.33
2016-05-12T11:32:30.108Z,27.24
2016-05-12T11:33:30.159Z,27.06
2016-05-12T11:34:30.176Z,27.25
2016-05-12T11:35:30.210Z,27.53
2016-05-12T11:36:30.104Z,27.07
2016-05-12T11:37:30.278Z,25.14
2016-05-12T11:38:30.328Z,25.15
2016-05-12T11:39:30.205Z,25.26
2016-05-12T11:40:30.397Z,25.45
2016-05-12T11:41:44.602Z,25.36
2016-05-12T11:42:30.463Z,25.84
2016-05-12T11:43:30.498Z,26.32
2016-05-12T11:44:30.547Z,27.07
2016-05-12T11:45:30.410Z,27.73
2016-05-12T11:46:30.600Z,28.22
2016-05-12T11:47:30.618Z,29.08
2016-05-12T11:48:30.668Z,29.36
2016-05-12T11:49:30.685Z,30.41
2016-05-12T11:50:30.736Z,30.02
2016-05-12T11:51:30.754Z,29.92
2016-05-12T11:52:30.787Z,30.41
2016-05-12T11:54:30.855Z,29.44
2016-05-12T11:55:30.890Z,28.19
2016-05-12T11:56:30.907Z,28.19
2016-05-12T11:57:45.129Z,28.2
2016-05-12T11:58:30.976Z,27.64
2016-05-12T11:59:31.009Z,26.68
2016-05-12T12:00:31.043Z,26.31
2016-05-12T12:01:31.078Z,26.4
2016-05-12T12:02:31.112Z,26.5
2016-05-12T12:03:31.146Z,27.58
2016-05-12T12:04:31.179Z,27.5
2016-05-12T12:05:31.213Z,26.62
2016-05-12T12:07:31.281Z,26.98
2016-05-12T12:08:31.158Z,27.28
2016-05-12T12:10:31.367Z,28.59
2016-05-12T12:11:31.416Z,28.68
2016-05-12T12:12:45.622Z,28.68
2016-05-12T12:13:31.469Z,28.87
2016-05-12T12:14:31.330Z,28.79
2016-05-12T12:15:31.521Z,28.13
2016-05-12T12:16:31.414Z,27.56
2016-05-12T12:17:31.589Z,27.84
2016-05-12T12:18:31.624Z,27.36
2016-05-12T12:19:31.657Z,27.64
2016-05-12T12:20:31.691Z,28.41
2016-05-12T12:22:31.744Z,27.62
2016-05-12T12:23:31.777Z,27.82
2016-05-12T12:24:31.811Z,28.19
2016-05-12T12:25:31.845Z,28.97
2016-05-12T12:26:31.879Z,28.87
2016-05-12T12:27:31.898Z,28.79
2016-05-12T12:28:31.931Z,28.3
2016-05-12T12:29:31.981Z,28.13
2016-05-12T12:30:31.983Z,27.45
2016-05-12T12:31:32.064Z,27.17
2016-05-12T12:32:32.052Z,27.35
2016-05-12T12:33:32.085Z,27.07
2016-05-12T12:34:32.134Z,27.35
2016-05-12T12:35:32.137Z,27.07
2016-05-12T12:36:32.172Z,26.87
2016-05-12T12:37:32.206Z,27.07
2016-05-12T12:38:32.224Z,28.04
2016-05-12T12:39:32.258Z,27.17
2016-05-12T12:40:32.323Z,27.73
2016-05-12T12:41:32.311Z,28.13
2016-05-12T12:42:32.359Z,28.22
2016-05-12T12:43:32.394Z,28.13
2016-05-12T12:44:46.599Z,28.79
2016-05-12T12:45:32.430Z,28.89
2016-05-12T12:46:32.324Z,28.02
2016-05-12T12:47:32.497Z,29.16
2016-05-12T12:48:32.532Z,28.29
2016-05-12T12:49:32.549Z,28.19
2016-05-12T12:50:32.585Z,28.29
2016-05-12T12:51:32.618Z,28.56
2016-05-12T12:52:32.636Z,29.24
2016-05-12T12:53:32.702Z,28.86
2016-05-12T12:54:32.704Z,29.15
2016-05-12T12:55:32.723Z,29.26
2016-05-12T12:57:32.791Z,28.98
2016-05-12T12:58:32.824Z,28.59
2016-05-12T12:59:32.859Z,28.5
2016-05-12T13:00:47.065Z,29.06
2016-05-12T13:01:33.082Z,28.77
2016-05-12T13:02:32.788Z,28.69
2016-05-12T13:03:32.962Z,28.2
2016-05-12T13:04:32.981Z,28.32
2016-05-12T13:05:33.015Z,28.13
2016-05-12T13:06:33.048Z,28.22
2016-05-12T13:07:33.083Z,28.13
2016-05-12T13:08:33.101Z,28.23
2016-05-12T13:09:33.135Z,27.64
2016-05-12T13:10:33.169Z,27.53
2016-05-12T13:11:33.187Z,27.92
2016-05-12T13:12:33.222Z,28.19
2016-05-12T13:13:33.256Z,27.91
2016-05-12T13:14:33.290Z,28.09
2016-05-12T13:15:33.307Z,29.05
2016-05-12T13:16:47.967Z,29.05
2016-05-12T13:17:33.375Z,28.49
2016-05-12T13:18:33.394Z,28.68
2016-05-12T13:19:33.428Z,28.89
2016-05-12T13:20:33.461Z,28.11
2016-05-12T13:21:33.480Z,27.43
2016-05-12T13:22:33.513Z,28.09
2016-05-12T13:23:33.548Z,28.19
2016-05-12T13:24:33.426Z,28.3
2016-05-12T13:25:33.599Z,28.02
2016-05-12T13:26:33.618Z,27.25
2016-05-12T13:30:33.738Z,27.06
2016-05-12T13:32:47.979Z,27.25
2016-05-12T13:33:33.825Z,27.26
2016-05-12T13:34:33.859Z,27.46
2016-05-12T13:35:33.877Z,27.06
2016-05-12T13:36:33.911Z,26.95
2016-05-12T13:37:33.961Z,27.06
2016-05-12T13:38:33.964Z,26.48
2016-05-12T13:39:34.012Z,27.24
2016-05-12T13:40:34.031Z,26.96
2016-05-12T13:41:34.065Z,26